메인 페이지
METAR-TAF:

METAR-TAF

공항 :

과테말라, 과테말라

라 아우로라 국제공항

위도: 14-35N, 경도: 090-31W, 고도: 1489m

현재 날씨관측

예보는 55분 전, 18:00시(UTC)에 발표되었습니다.
18kt
온도 20°C
습도 56%
기압 1027 hPa
시정 10km 이상
고도 2000ft 상공 구름 조금
고도 20000ft 상공 구름 많음

METAR: MGGT 191800Z 36018KT 9999 FEW020 BKN200 20/11 Q1027 A3033

시각: 12:55 (18:55 UTC)

예보

예보는 1 시간 55분 전, 17:00시(UTC)에 발표되었습니다.
예보 대상 시간: 19일 18시부터 20일 18시까지 (UTC)
18kt
시정 10km 이상
고도 1800ft 상공 구름 보통
전환 중
20일 02시부터 20일 04시까지 (UTC)
16kt
고도 1600ft 상공 구름 많음
전환 중
20일 08시부터 20일 10시까지 (UTC)
고도 1400ft 상공 구름 보통
전환 중
20일 15시부터 20일 17시까지 (UTC)
북북동14kt
고도 1800ft 상공 구름 조금

TAF: MGGT 191700Z 1918/2018 36018KT 9999 SCT018 TX22/1920Z TN11/2012Z BECMG 2002/2004 36016KT BKN016 BECMG 2008/2010 SCT014 BECMG 2015/2017 02014KT FEW018

4,000개 이상의 공항 관측 자료 및 예보 (METAR 및 TAF 보고).

지도상에서 검색 가능한 기상관측소가 노란 점과 빨간 점으로 표시되어 있습니다.

기상관측소 명을 보려면 표시 위로 마우스를 이동하세요.

날씨 관측과 예보를 보려면 클릭하세요.

지도 변경 : 확대하려면 엑스 표시가 있는 녹색 버튼, 축소하려면 빼기 표시가 있는 녹색 버튼, 다음 페이지의 지도를 보려면 녹색 화살표를 클릭하세요.


METAR-TAF: